North Castle, New York
Current Conditions -  °F | °C
As of 2:56 AM on Monday 24 Nov 2014 (Local Time) from KHPN Reporting Station
Heavy Rain Heavy Rain  
Wind Chill: 51°   Ceiling: 300
Heat Index: 51°   Visibility: 1mi
Dew Point: 50°   Wind: 10mph
Humidity: 96%   Direction: 100°E
Pressure: 29.85"   Gusts: NA
Location:  41.1347°N, 73.7005°W
Report Text: KHPN 240756Z 10009KT 1SM R16/P6000FT +RA BR VV003 11/10 A2985 RMK AO2 PRESFR SLP109 P0020 T01060100
Loading
Personal Weather Stations






























Interactive Weather Map New forecast layout! Learn more

10-Day Weather Forecast

Advertisements
Track Severe Weather on mobile